Picture Butte, Canada
Current Conditions -  °F | °C
As of 6:00 PM on Sunday 23 Nov 2014 (Local Time) from CYQL Reporting Station
Scattered Clouds Scattered Clouds  
Wind Chill: -5°   Ceiling: Unl
Heat Index:   Visibility: 15mi
Dew Point: -4°   Wind: 13mph
Humidity: 75%   Direction: 240°WSW
Pressure: 29.71"   Gusts: NA
Location:  49.87°N, 112.78°W
Report Text: CYQL 240100Z 24011KT 15SM FEW130 SCT220 00/M04 A2971 RMK AC2CI2 SLP103
Loading
Personal Weather Stations






























Interactive Weather Map New forecast layout! Learn more

10-Day Weather Forecast

Advertisements
Track Severe Weather on mobile